Time;durP1;ratioP1;P1;durP2;ratioP2;P2;SDS_P1;SDS_P2;PMS_P1;PMS_P2;Temp;Humidity;BMP_temperature;BMP_pressure;BME280_temperature;BME280_humidity;BME280_pressure;Samples;Min_cycle;Max_cycle;Signal;HPM_P1;HPM_P2
2022/04/03 05:01:22;;;;;;;18.30;11.00;;;0.80;99.90;;;;;;6154303;22;20051;-81
2022/04/03 05:03:49;;;;;;;15.75;10.43;;;0.80;99.90;;;;;;6168731;23;20060;-80
2022/04/03 05:06:16;;;;;;;17.70;11.20;;;0.90;99.90;;;;;;6168641;23;20238;-79
2022/04/03 05:08:43;;;;;;;14.88;10.25;;;0.90;99.90;;;;;;6192550;23;20016;-83
2022/04/03 05:11:08;;;;;;;18.45;10.93;;;0.90;99.90;;;;;;6193644;23;19997;-79
2022/04/03 05:13:36;;;;;;;16.13;10.35;;;0.90;99.90;;;;;;6195251;23;20005;-81
2022/04/03 05:16:03;;;;;;;15.65;10.02;;;1.00;99.90;;;;;;6173015;23;20024;-82
2022/04/03 05:18:29;;;;;;;14.90;10.40;;;1.00;99.90;;;;;;6172207;23;20198;-80
2022/04/03 05:20:58;;;;;;;14.65;9.80;;;1.00;99.90;;;;;;6223391;23;20009;-78
2022/04/03 05:23:27;;;;;;;17.73;10.52;;;1.00;99.90;;;;;;6148548;23;19997;-80
2022/04/03 05:25:57;;;;;;;13.57;8.90;;;1.00;99.90;;;;;;6143079;23;20005;-80
2022/04/03 05:28:26;;;;;;;15.35;9.88;;;1.10;99.90;;;;;;6169228;23;20013;-80
2022/04/03 05:30:52;;;;;;;18.10;10.27;;;1.10;99.90;;;;;;6154288;23;20021;-81
2022/04/03 05:33:56;;;;;;;15.85;9.50;;;1.10;99.90;;;;;;6169299;23;20006;-81
2022/04/03 05:36:24;;;;;;;14.15;9.07;;;1.10;99.90;;;;;;6144773;23;20029;-79
2022/04/03 05:39:34;;;;;;;16.58;10.05;;;1.10;99.90;;;;;;6168909;23;20009;-80
2022/04/03 05:42:01;;;;;;;14.32;9.80;;;1.20;99.90;;;;;;6121155;23;20016;-80
2022/04/03 05:44:28;;;;;;;13.13;8.18;;;1.20;99.90;;;;;;6119366;23;20318;-81
2022/04/03 05:47:19;;;;;;;;;;;;;;;;;;;;;
2022/04/03 05:50:20;;;;;;;12.63;7.95;;;1.30;99.90;;;;;;6158733;23;20036;-81
2022/04/03 05:57:38;;;;;;;13.57;8.00;;;1.50;99.90;;;;;;6006018;23;20011;-81
2022/04/03 06:00:34;;;;;;;12.00;7.88;;;1.50;99.90;;;;;;6082749;23;20301;-82
2022/04/03 06:03:08;;;;;;;11.88;8.02;;;1.70;99.90;;;;;;6209825;23;20031;-82
2022/04/03 06:05:38;;;;;;;14.20;8.73;;;1.90;99.90;;;;;;6225042;23;20001;-81
2022/04/03 06:08:05;;;;;;;13.23;7.80;;;2.00;99.90;;;;;;6226398;23;20013;-80
2022/04/03 06:10:31;;;;;;;13.93;8.20;;;2.00;99.90;;;;;;6224628;23;20063;-78
2022/04/03 06:12:59;;;;;;;14.27;8.90;;;2.10;99.90;;;;;;6200332;23;20005;-81
2022/04/03 06:15:40;;;;;;;15.20;7.53;;;2.20;99.90;;;;;;6199344;23;20323;-79
2022/04/03 06:18:36;;;;;;;13.63;7.65;;;2.40;99.90;;;;;;6198894;23;20008;-82
2022/04/03 06:21:02;;;;;;;10.77;7.53;;;2.30;99.90;;;;;;6226981;23;20008;-80
2022/04/03 06:23:29;;;;;;;10.52;6.95;;;2.30;99.90;;;;;;6226116;23;20008;-80
2022/04/03 06:25:57;;;;;;;11.07;7.03;;;2.40;99.90;;;;;;6226885;23;20333;-79
2022/04/03 06:28:24;;;;;;;;;;;2.50;99.90;;;;;;6228309;23;20036;-81
2022/04/03 06:30:51;;;;;;;11.02;6.78;;;2.70;99.90;;;;;;6284258;22;19910;-79
2022/04/03 06:33:18;;;;;;;10.57;7.25;;;2.60;99.90;;;;;;6235618;23;20012;-82
2022/04/03 06:35:54;;;;;;;8.60;6.28;;;2.70;99.90;;;;;;6260809;23;20011;-80
2022/04/03 06:38:32;;;;;;;11.85;7.22;;;2.70;99.90;;;;;;6229574;23;20016;-82
2022/04/03 06:41:08;;;;;;;10.18;6.50;;;2.80;99.90;;;;;;6202568;23;20008;-83
2022/04/03 06:43:40;;;;;;;9.05;6.18;;;2.80;99.90;;;;;;6229083;23;20009;-81
2022/04/03 06:49:34;;;;;;;8.02;5.68;;;2.80;99.90;;;;;;6230315;23;20011;-81
2022/04/03 06:52:11;;;;;;;9.90;5.80;;;2.90;99.90;;;;;;6231670;23;20008;-81
2022/04/03 06:54:44;;;;;;;9.07;5.22;;;2.90;99.90;;;;;;6227845;23;20014;-79
2022/04/03 06:57:33;;;;;;;9.75;5.25;;;3.00;99.90;;;;;;6248772;23;20054;-81
2022/04/03 07:00:34;;;;;;;9.90;5.97;;;3.30;99.90;;;;;;6230789;23;20008;-81
2022/04/03 07:10:09;;;;;;;6.95;5.20;;;4.20;99.90;;;;;;6201448;23;20013;-81
2022/04/03 07:37:36;;;;;;;9.00;5.05;;;4.70;98.10;;;;;;6146835;22;20027;-81
2022/04/03 07:40:04;;;;;;;8.40;5.20;;;4.90;98.00;;;;;;6235683;23;20034;-82
2022/04/03 07:42:30;;;;;;;7.63;5.43;;;4.90;97.20;;;;;;6236320;23;20027;-78
2022/04/03 07:44:56;;;;;;;8.20;5.28;;;5.10;97.90;;;;;;6211005;23;20007;-83
2022/04/03 07:51:44;;;;;;;;;;;5.20;97.00;;;;;;6234896;23;20054;-82
2022/04/03 07:54:14;;;;;;;7.70;4.88;;;5.10;96.30;;;;;;6184031;23;19900;-81
2022/04/03 07:56:41;;;;;;;9.38;5.28;;;5.20;95.60;;;;;;6231824;23;20004;-81
2022/04/03 07:59:37;;;;;;;7.47;4.68;;;5.20;95.10;;;;;;6180993;23;20008;-81
2022/04/03 08:27:59;;;;;;;7.00;4.38;;;5.50;93.90;;;;;;6139891;23;20033;-80
2022/04/03 08:30:27;;;;;;;8.30;5.15;;;5.80;94.60;;;;;;6115496;23;20019;-78
2022/04/03 08:32:54;;;;;;;6.63;4.38;;;6.00;93.60;;;;;;6114440;23;19998;-81
2022/04/03 08:35:30;;;;;;;6.93;4.15;;;6.10;93.30;;;;;;6114834;23;20029;-80
2022/04/03 08:37:58;;;;;;;5.83;4.20;;;6.20;92.60;;;;;;6113979;23;20014;-81
2022/04/03 08:40:53;;;;;;;5.75;4.05;;;6.10;92.50;;;;;;6141182;23;20010;-81
2022/04/03 08:44:07;;;;;;;7.18;4.35;;;6.20;92.00;;;;;;6092550;23;20073;-81
2022/04/03 08:46:40;;;;;;;7.53;3.85;;;6.30;91.70;;;;;;6082103;23;20184;-77
2022/04/03 08:49:20;;;;;;;6.75;3.95;;;6.50;91.30;;;;;;6139991;23;20041;-80
2022/04/03 08:51:47;;;;;;;6.10;3.70;;;6.60;91.70;;;;;;6116166;23;20036;-79
2022/04/03 08:55:06;;;;;;;6.82;3.75;;;6.80;91.90;;;;;;6117177;23;20192;-82
2022/04/03 08:58:30;;;;;;;6.20;3.58;;;7.10;90.80;;;;;;6116840;23;20010;-82
2022/04/03 09:00:56;;;;;;;5.63;3.50;;;7.20;86.70;;;;;;6113183;23;20024;-81
2022/04/03 09:07:06;;;;;;;4.82;3.30;;;6.50;89.50;;;;;;6172307;23;20032;-81
2022/04/03 09:09:32;;;;;;;5.57;3.50;;;6.20;89.30;;;;;;6146240;23;20089;-80
2022/04/03 09:12:10;;;;;;;5.68;3.15;;;6.00;90.20;;;;;;6146065;23;20053;-81
2022/04/03 09:14:48;;;;;;;9.05;4.10;;;6.10;91.00;;;;;;6145564;23;20061;-80
2022/04/03 09:17:45;;;;;;;5.78;3.22;;;6.30;90.60;;;;;;6143593;23;20015;-80
2022/04/03 09:20:17;;;;;;;6.25;3.80;;;6.50;91.00;;;;;;6171759;23;20027;-81
2022/04/03 09:23:05;;;;;;;6.20;3.65;;;6.40;89.60;;;;;;6146285;23;20252;-80
2022/04/03 09:25:37;;;;;;;6.60;3.55;;;6.00;90.50;;;;;;6169887;23;20291;-80
2022/04/03 09:52:38;;;;;;;6.00;3.60;;;7.00;88.00;;;;;;6138399;23;20026;-79
2022/04/03 09:59:09;;;;;;;8.35;4.25;;;6.90;87.80;;;;;;6140696;23;20062;-77
2022/04/03 10:01:40;;;;;;;6.30;3.42;;;6.90;87.40;;;;;;6132378;23;20121;-79
2022/04/03 10:04:07;;;;;;;4.35;3.17;;;6.70;88.40;;;;;;6110070;23;20246;-80
2022/04/03 10:07:00;;;;;;;5.38;3.40;;;6.70;89.60;;;;;;6134252;23;20030;-80
2022/04/03 10:09:26;;;;;;;4.78;3.15;;;6.40;86.50;;;;;;6133580;23;20022;-81
2022/04/03 10:12:50;;;;;;;5.38;3.08;;;6.30;90.30;;;;;;6131935;23;20006;-80
2022/04/03 10:15:17;;;;;;;4.88;3.08;;;6.10;90.70;;;;;;6134429;23;20003;-82
2022/04/03 10:17:43;;;;;;;4.78;3.53;;;6.00;90.80;;;;;;6134268;23;20034;-81
2022/04/03 10:20:10;;;;;;;5.25;3.00;;;5.80;91.00;;;;;;6133607;23;20021;-80
2022/04/03 10:22:39;;;;;;;5.47;2.75;;;5.90;90.70;;;;;;6133869;23;20010;-80
2022/04/03 10:25:11;;;;;;;4.38;2.80;;;5.80;90.60;;;;;;6134275;23;20300;-79
2022/04/03 10:27:39;;;;;;;5.97;2.80;;;6.00;89.90;;;;;;6133641;23;20066;-77
2022/04/03 10:30:06;;;;;;;5.53;2.65;;;6.00;90.30;;;;;;6131714;23;20284;-81
2022/04/03 10:32:34;;;;;;;5.00;3.20;;;6.10;90.10;;;;;;6134235;23;20030;-81
2022/04/03 10:35:05;;;;;;;4.72;2.70;;;6.10;88.60;;;;;;6134382;23;20014;-79
2022/04/03 10:37:37;;;;;;;5.78;3.05;;;6.00;87.90;;;;;;6134480;23;20014;-79
2022/04/03 10:40:04;;;;;;;5.25;3.20;;;6.20;89.10;;;;;;6109470;23;20010;-81
2022/04/03 10:42:30;;;;;;;4.57;2.42;;;6.40;88.80;;;;;;6132740;23;20001;-81
2022/04/03 10:45:11;;;;;;;6.10;2.92;;;6.40;84.80;;;;;;6132209;23;20010;-80
2022/04/03 10:47:48;;;;;;;4.80;3.00;;;6.60;88.50;;;;;;6102064;23;20018;-81
2022/04/03 10:50:29;;;;;;;5.55;2.60;;;6.70;88.80;;;;;;6112403;23;20074;-80
2022/04/03 10:52:56;;;;;;;5.03;2.65;;;6.80;87.10;;;;;;6131714;23;20005;-80
2022/04/03 10:55:38;;;;;;;6.13;2.80;;;6.70;87.30;;;;;;6131238;23;19998;-80
2022/04/03 10:58:15;;;;;;;9.10;3.22;;;6.80;89.80;;;;;;6108063;23;20018;-80
2022/04/03 11:00:41;;;;;;;4.32;2.55;;;6.80;89.80;;;;;;6107745;23;20002;-81
2022/04/03 11:03:19;;;;;;;4.35;2.40;;;6.70;88.70;;;;;;6132825;23;20247;-81
2022/04/03 11:05:46;;;;;;;3.78;2.20;;;6.70;87.80;;;;;;6109500;23;20010;-81
2022/04/03 11:08:12;;;;;;;4.68;2.47;;;6.50;86.80;;;;;;6108451;23;19999;-81
2022/04/03 11:10:54;;;;;;;5.68;2.63;;;6.80;86.80;;;;;;6130927;23;20003;-81
2022/04/03 11:13:33;;;;;;;5.60;2.40;;;6.90;84.90;;;;;;6130714;23;20006;-81
2022/04/03 11:16:07;;;;;;;5.30;2.45;;;7.30;85.90;;;;;;6130204;23;20062;-79
2022/04/03 11:18:45;;;;;;;5.53;2.45;;;7.90;84.60;;;;;;6129556;23;20070;-79
2022/04/03 11:21:28;;;;;;;4.32;2.47;;;8.20;81.80;;;;;;6128387;23;20057;-81
2022/04/03 11:24:14;;;;;;;6.03;2.60;;;8.00;80.30;;;;;;6107289;23;20033;-80
2022/04/03 11:26:41;;;;;;;6.20;2.50;;;8.50;79.40;;;;;;6109788;23;20010;-80
2022/04/03 11:29:10;;;;;;;4.55;2.13;;;9.00;78.70;;;;;;6143461;23;20006;-81
2022/04/03 11:31:46;;;;;;;2.90;2.00;;;10.70;73.90;;;;;;6141041;23;20033;-81
2022/04/03 11:34:19;;;;;;;3.80;2.40;;;11.50;71.10;;;;;;6104741;23;20017;-80
2022/04/03 11:40:30;;;;;;;3.95;2.15;;;11.20;70.60;;;;;;6105631;23;20017;-81
2022/04/03 11:46:23;;;;;;;4.18;2.20;;;10.10;71.00;;;;;;6103588;23;20077;-80
2022/04/03 11:48:52;;;;;;;4.55;2.63;;;9.90;73.40;;;;;;6128164;23;20011;-82
2022/04/03 11:51:20;;;;;;;4.63;2.80;;;9.30;73.20;;;;;;6104838;23;20368;-82
2022/04/03 11:54:15;;;;;;;4.67;2.37;;;8.80;74.30;;;;;;6105153;23;19999;-80
2022/04/03 11:56:52;;;;;;;3.30;2.40;;;8.80;75.10;;;;;;6116270;23;20010;-80
2022/04/03 11:59:22;;;;;;;4.88;2.55;;;8.60;73.90;;;;;;6105069;23;20304;-80
2022/04/03 12:02:03;;;;;;;3.92;2.22;;;8.60;74.40;;;;;;6113647;23;20104;-80
2022/04/03 12:04:43;;;;;;;4.78;2.40;;;8.50;72.90;;;;;;6098124;23;20074;-80
2022/04/03 12:07:16;;;;;;;4.60;2.30;;;8.20;73.90;;;;;;6127921;23;20458;-80
2022/04/03 12:12:48;;;;;;;4.07;2.38;;;8.20;72.40;;;;;;6109367;23;20010;-81
2022/04/03 12:20:13;;;;;;;4.22;2.78;;;8.10;75.60;;;;;;6088984;23;20054;-81
2022/04/03 12:23:27;;;;;;;6.32;2.45;;;8.30;76.10;;;;;;6056483;23;20308;-81
2022/04/03 12:25:53;;;;;;;3.40;2.22;;;8.40;77.60;;;;;;6049580;23;20006;-79
2022/04/03 12:28:25;;;;;;;4.40;2.55;;;8.10;74.50;;;;;;6027212;23;20002;-79
2022/04/03 12:30:59;;;;;;;4.90;2.70;;;7.70;75.70;;;;;;6102274;23;20019;-79
2022/04/03 12:33:25;;;;;;;4.50;2.47;;;7.80;79.70;;;;;;6103444;23;20029;-81
2022/04/03 12:35:55;;;;;;;3.53;2.30;;;7.40;76.40;;;;;;6103490;23;20025;-80
2022/04/03 12:38:21;;;;;;;3.03;2.08;;;7.30;75.90;;;;;;6102848;23;20011;-80
2022/04/03 12:40:48;;;;;;;3.63;2.35;;;7.10;75.20;;;;;;6055123;23;19994;-82
2022/04/03 12:43:14;;;;;;;5.15;2.50;;;6.80;77.40;;;;;;6078729;23;20069;-80
2022/04/03 12:45:42;;;;;;;4.20;2.38;;;6.70;76.80;;;;;;6102109;23;20087;-81
2022/04/03 12:48:09;;;;;;;4.88;2.40;;;6.60;78.00;;;;;;6102863;23;20033;-80
2022/04/03 12:50:43;;;;;;;4.10;2.63;;;6.40;79.00;;;;;;6102436;23;20370;-80
2022/04/03 12:53:16;;;;;;;4.50;2.75;;;6.50;78.50;;;;;;6078425;23;20049;-80
2022/04/03 12:55:51;;;;;;;6.15;2.20;;;6.30;79.00;;;;;;6126809;23;20002;-80
2022/04/03 12:58:35;;;;;;;6.97;2.55;;;6.10;78.50;;;;;;6157600;23;20016;-81
2022/04/03 13:02:02;;;;;;;5.97;2.55;;;5.90;79.30;;;;;;6142721;23;20029;-80
2022/04/03 13:05:23;;;;;;;4.85;2.35;;;5.90;79.50;;;;;;6079300;23;20235;-80
2022/04/03 13:35:29;;;;;;;;;;;;;;;;;;;;;
2022/04/03 13:41:43;;;;;;;5.18;2.42;;;6.80;78.90;;;;;;5861152;24;20182;-80
2022/04/03 13:44:41;;;;;;;4.47;2.40;;;7.30;74.70;;;;;;5849828;24;20082;-80
2022/04/03 13:47:46;;;;;;;3.42;2.10;;;7.70;73.90;;;;;;5849751;24;20029;-80
2022/04/03 13:50:39;;;;;;;3.72;2.45;;;8.10;74.10;;;;;;5930916;23;20216;-81
2022/04/03 13:53:32;;;;;;;4.45;2.33;;;8.20;71.30;;;;;;6039616;23;20027;-80
2022/04/03 13:56:12;;;;;;;3.72;2.30;;;8.60;73.80;;;;;;6099111;23;20348;-79
2022/04/03 13:58:45;;;;;;;4.60;2.38;;;8.70;71.60;;;;;;6120922;23;20009;-80
2022/04/03 14:01:36;;;;;;;;;;;;;;;;;;;;;
2022/04/03 14:04:27;;;;;;;3.30;2.22;;;8.80;69.40;;;;;;6163130;23;20009;-79
2022/04/03 14:06:58;;;;;;;3.42;2.33;;;8.60;70.00;;;;;;6139644;23;20092;-82
2022/04/03 14:09:28;;;;;;;3.92;2.10;;;8.90;69.20;;;;;;6163239;23;20010;-82
2022/04/03 14:15:48;;;;;;;4.88;2.95;;;9.40;67.50;;;;;;6163406;23;20046;-81
2022/04/03 14:18:31;;;;;;;3.92;1.90;;;10.00;66.30;;;;;;6147432;23;20089;-80
2022/04/03 14:21:14;;;;;;;3.47;1.90;;;11.70;62.70;;;;;;6138426;23;20005;-81
2022/04/03 14:23:45;;;;;;;2.92;1.95;;;13.70;59.50;;;;;;6162996;23;20009;-80
2022/04/03 14:26:58;;;;;;;4.88;2.13;;;14.50;57.20;;;;;;6140770;23;20283;-80
2022/04/03 14:29:27;;;;;;;4.22;2.25;;;14.20;56.10;;;;;;6162566;23;20353;-80
2022/04/03 14:32:34;;;;;;;4.38;2.17;;;13.50;56.20;;;;;;6138057;23;20315;-80
2022/04/03 14:43:22;;;;;;;4.05;2.55;;;9.50;65.40;;;;;;6077615;23;20347;-82
2022/04/03 14:46:15;;;;;;;4.95;2.25;;;8.80;65.90;;;;;;6041310;23;20007;-81
2022/04/03 14:48:51;;;;;;;6.00;2.53;;;8.30;69.10;;;;;;6031115;23;20011;-81
2022/04/03 14:51:22;;;;;;;3.97;2.60;;;7.60;71.40;;;;;;6025436;23;20016;-80
2022/04/03 14:54:05;;;;;;;4.13;2.72;;;7.20;72.60;;;;;;5995143;23;20011;-81
2022/04/03 14:56:37;;;;;;;5.10;2.58;;;6.90;73.90;;;;;;5995512;23;20004;-79
2022/04/03 14:59:23;;;;;;;4.43;2.35;;;6.70;75.00;;;;;;6017732;23;20070;-80
2022/04/03 15:02:17;;;;;;;4.38;2.60;;;6.80;74.90;;;;;;5987095;23;20251;-80
2022/04/03 15:04:45;;;;;;;5.25;2.70;;;6.60;74.00;;;;;;5965878;24;20016;-79
2022/04/03 15:07:13;;;;;;;4.88;2.88;;;6.50;73.60;;;;;;6017582;23;20323;-79
2022/04/03 15:09:40;;;;;;;4.28;2.22;;;6.50;74.00;;;;;;5996455;23;20028;-79
2022/04/03 15:12:10;;;;;;;5.55;2.80;;;6.50;73.40;;;;;;6015390;23;20020;-81
2022/04/03 15:14:40;;;;;;;4.97;2.83;;;6.70;73.90;;;;;;5992692;23;20221;-79
2022/04/03 15:17:07;;;;;;;4.55;2.30;;;6.80;73.60;;;;;;5990728;23;20015;-78
2022/04/03 15:19:34;;;;;;;4.30;2.70;;;6.70;73.00;;;;;;6101532;23;20069;-79
2022/04/03 15:22:06;;;;;;;5.23;2.90;;;6.80;76.10;;;;;;6101894;23;20002;-80
2022/04/03 15:24:32;;;;;;;3.95;2.70;;;6.70;73.40;;;;;;6124154;23;20540;-79
2022/04/03 15:26:58;;;;;;;5.38;2.42;;;6.60;72.80;;;;;;6138454;23;20005;-80
2022/04/03 15:29:25;;;;;;;4.75;2.83;;;6.60;73.10;;;;;;6188649;23;20009;-80
2022/04/03 15:31:52;;;;;;;3.50;2.42;;;6.50;73.50;;;;;;6185788;23;20292;-80
2022/04/03 15:34:34;;;;;;;;;;;6.50;72.50;;;;;;6187526;23;20006;-79
2022/04/03 15:37:04;;;;;;;5.63;2.30;;;6.60;73.10;;;;;;6163601;23;20217;-79
2022/04/03 15:39:31;;;;;;;5.93;2.78;;;6.80;75.20;;;;;;6163448;23;20009;-79
2022/04/03 15:42:04;;;;;;;4.93;3.00;;;6.80;74.50;;;;;;6163629;23;20004;-80
2022/04/03 15:44:33;;;;;;;4.80;2.70;;;6.70;73.80;;;;;;6162001;23;20005;-79
2022/04/03 15:46:58;;;;;;;3.83;2.45;;;6.60;73.10;;;;;;6186437;23;20017;-78
2022/04/03 15:49:25;;;;;;;6.32;2.95;;;6.80;74.30;;;;;;6162683;23;20112;-80
2022/04/03 15:51:58;;;;;;;5.65;3.10;;;6.80;75.40;;;;;;6187597;23;20009;-81
2022/04/03 15:54:25;;;;;;;6.35;3.60;;;7.00;75.70;;;;;;6162073;23;20002;-80
2022/04/03 15:56:51;;;;;;;5.90;3.17;;;7.00;74.80;;;;;;6163158;23;20013;-80
2022/04/03 15:59:17;;;;;;;6.82;3.75;;;7.20;74.40;;;;;;6188446;23;20005;-78
2022/04/03 16:02:25;;;;;;;8.43;4.35;;;6.90;74.40;;;;;;6188105;23;20017;-81
2022/04/03 16:04:54;;;;;;;6.35;3.28;;;6.80;75.10;;;;;;6187545;23;20017;-80
2022/04/03 16:07:20;;;;;;;4.78;3.10;;;7.40;77.20;;;;;;6187927;23;20002;-78
2022/04/03 16:17:00;;;;;;;5.03;2.80;;;11.00;65.10;;;;;;6164251;23;20175;-80
2022/04/03 16:19:26;;;;;;;6.10;3.00;;;10.40;63.90;;;;;;6187623;23;20223;-79
2022/04/03 16:21:52;;;;;;;5.40;3.08;;;9.90;67.50;;;;;;6187101;23;20005;-80
2022/04/03 16:24:18;;;;;;;5.00;2.75;;;9.40;67.60;;;;;;6187551;23;20223;-81
2022/04/03 16:26:45;;;;;;;4.57;2.88;;;9.20;67.70;;;;;;6187872;23;20227;-79
2022/04/03 16:32:58;;;;;;;4.57;3.00;;;8.70;68.90;;;;;;6163848;23;20033;-80
2022/04/03 16:35:24;;;;;;;3.95;2.67;;;8.10;72.10;;;;;;6161636;23;20052;-79
2022/04/03 16:44:46;;;;;;;6.38;3.65;;;6.80;75.40;;;;;;6161769;23;20006;-80
2022/04/03 16:47:16;;;;;;;6.53;3.58;;;6.70;75.30;;;;;;6135561;23;20211;-79
2022/04/03 16:50:15;;;;;;;8.43;3.75;;;6.30;76.40;;;;;;6137500;23;20010;-79
2022/04/03 16:52:41;;;;;;;6.07;3.92;;;6.30;79.30;;;;;;6162154;23;20010;-78
2022/04/03 16:55:08;;;;;;;6.47;3.60;;;6.20;78.30;;;;;;6167417;23;20015;-79
2022/04/03 16:57:35;;;;;;;6.80;3.78;;;5.80;78.20;;;;;;6191886;23;19997;-82
2022/04/03 17:00:01;;;;;;;5.40;3.55;;;5.70;80.30;;;;;;6167504;23;20016;-81
2022/04/03 17:02:27;;;;;;;7.30;3.85;;;5.50;80.70;;;;;;6191579;23;20009;-81
2022/04/03 17:04:54;;;;;;;8.65;4.28;;;5.40;81.90;;;;;;6192652;23;20005;-81
2022/04/03 17:07:22;;;;;;;5.65;3.90;;;5.20;83.10;;;;;;6115112;23;20002;-81
2022/04/03 17:09:49;;;;;;;6.47;4.65;;;5.20;85.10;;;;;;6137306;23;20022;-78
2022/04/03 17:12:15;;;;;;;6.53;4.05;;;5.20;83.80;;;;;;6138545;23;20049;-79
2022/04/03 17:14:41;;;;;;;6.47;3.53;;;5.00;83.90;;;;;;6163257;23;20013;-81
2022/04/03 17:17:10;;;;;;;7.80;3.97;;;5.00;85.30;;;;;;6166728;23;20010;-79
2022/04/03 17:19:37;;;;;;;8.20;4.13;;;4.90;84.70;;;;;;6166385;23;19998;-79
2022/04/03 17:22:07;;;;;;;8.38;5.28;;;5.00;85.40;;;;;;6167257;23;20032;-77
2022/04/03 17:24:35;;;;;;;6.38;3.97;;;4.80;85.40;;;;;;6167231;23;20006;-78
2022/04/03 17:27:05;;;;;;;8.30;4.20;;;4.90;85.80;;;;;;6144471;23;20021;-80
2022/04/03 17:29:35;;;;;;;11.00;5.50;;;4.80;85.90;;;;;;6169059;23;20014;-81
2022/04/03 17:32:03;;;;;;;5.32;3.60;;;4.80;86.00;;;;;;6167900;23;20018;-82
2022/04/03 17:34:40;;;;;;;5.65;3.45;;;4.70;85.70;;;;;;6146378;23;19986;-82
2022/04/03 17:37:07;;;;;;;6.53;3.40;;;4.50;83.50;;;;;;6204187;23;20300;-80
2022/04/03 17:39:34;;;;;;;6.68;4.03;;;4.40;85.00;;;;;;6204687;23;20035;-79
2022/04/03 17:42:02;;;;;;;6.87;4.47;;;4.20;85.60;;;;;;6203528;23;20032;-81
2022/04/03 17:44:28;;;;;;;7.03;4.82;;;4.10;88.00;;;;;;6178307;23;20009;-79
2022/04/03 17:46:55;;;;;;;10.60;5.82;;;3.90;89.20;;;;;;6177725;23;20023;-79
2022/04/03 17:49:22;;;;;;;7.68;4.95;;;3.80;89.70;;;;;;6205994;23;20076;-80
2022/04/03 17:51:50;;;;;;;10.98;5.50;;;3.70;90.10;;;;;;6155968;23;20097;-81
2022/04/03 17:54:25;;;;;;;8.52;4.78;;;3.60;90.40;;;;;;6179522;23;20065;-80
2022/04/03 17:56:51;;;;;;;8.93;5.25;;;3.50;91.00;;;;;;6202993;23;20005;-78
2022/04/03 17:59:17;;;;;;;9.02;5.13;;;3.30;91.30;;;;;;6177922;23;20001;-79
2022/04/03 18:01:43;;;;;;;9.02;5.15;;;3.20;91.70;;;;;;6179097;23;20040;-80
2022/04/03 18:04:09;;;;;;;11.40;6.47;;;3.10;92.20;;;;;;6204388;23;20029;-79
2022/04/03 18:06:36;;;;;;;8.80;5.00;;;3.00;92.20;;;;;;6208392;23;20031;-79
2022/04/03 18:09:07;;;;;;;10.48;5.57;;;2.90;92.70;;;;;;6155685;23;20033;-78
2022/04/03 18:11:35;;;;;;;7.68;5.20;;;2.90;92.70;;;;;;6152520;23;20081;-77
2022/04/03 18:14:01;;;;;;;8.15;4.97;;;2.80;92.10;;;;;;6153197;23;20009;-79
2022/04/03 18:16:28;;;;;;;8.05;4.88;;;2.80;91.70;;;;;;6140119;23;20010;-80
2022/04/03 18:18:54;;;;;;;8.15;5.15;;;2.70;92.20;;;;;;6136911;23;20006;-80
2022/04/03 18:21:25;;;;;;;8.27;4.85;;;2.70;92.10;;;;;;6120247;23;20284;-79
2022/04/03 18:23:52;;;;;;;9.30;5.88;;;2.60;92.20;;;;;;6144745;23;20006;-81
2022/04/03 18:26:19;;;;;;;9.57;5.97;;;2.60;92.30;;;;;;6146411;23;20220;-80
2022/04/03 18:28:49;;;;;;;9.93;6.07;;;2.60;93.80;;;;;;6140738;23;20020;-80
2022/04/03 18:31:15;;;;;;;9.57;6.05;;;2.50;94.80;;;;;;6166035;23;20017;-80
2022/04/03 18:33:43;;;;;;;11.43;7.70;;;2.50;95.30;;;;;;6144245;23;19990;-81
2022/04/03 18:36:15;;;;;;;10.27;7.07;;;2.40;95.60;;;;;;6146445;23;20054;-79
2022/04/03 18:38:42;;;;;;;9.68;6.78;;;2.30;95.70;;;;;;6168877;23;20429;-80
2022/04/03 18:41:08;;;;;;;9.40;5.90;;;2.30;95.50;;;;;;6143819;23;20005;-81
2022/04/03 18:43:47;;;;;;;9.63;6.07;;;2.20;95.60;;;;;;6143227;23;20026;-81
2022/04/03 18:46:12;;;;;;;;;;;2.20;95.60;;;;;;6141990;23;20020;-80
2022/04/03 18:48:38;;;;;;;9.20;6.10;;;2.20;95.60;;;;;;6170875;23;19956;-79
2022/04/03 18:51:06;;;;;;;10.82;6.18;;;2.10;95.40;;;;;;6154517;23;20012;-77
2022/04/03 18:53:39;;;;;;;13.75;6.32;;;2.10;95.60;;;;;;6174723;23;20070;-80
2022/04/03 18:56:30;;;;;;;11.55;7.07;;;2.00;95.90;;;;;;6174291;23;20016;-80
2022/04/03 18:58:57;;;;;;;12.80;6.97;;;2.00;95.60;;;;;;6172764;23;20189;-80
2022/04/03 19:01:23;;;;;;;11.82;7.10;;;1.90;95.80;;;;;;6197784;23;20140;-81
2022/04/03 19:03:50;;;;;;;11.93;6.95;;;1.80;95.90;;;;;;6174725;23;20068;-80
2022/04/03 19:06:16;;;;;;;11.73;7.15;;;1.80;96.00;;;;;;6168408;23;20009;-81
2022/04/03 19:08:42;;;;;;;12.73;7.38;;;1.80;96.10;;;;;;6172456;23;20021;-81
2022/04/03 19:11:17;;;;;;;11.95;6.97;;;1.70;96.30;;;;;;6191965;23;20295;-81
2022/04/03 19:13:44;;;;;;;10.95;6.70;;;1.60;96.20;;;;;;6193328;23;19998;-79
2022/04/03 19:16:10;;;;;;;9.43;6.40;;;1.50;96.10;;;;;;6168059;23;20016;-81
2022/04/03 19:22:03;;;;;;;12.45;8.50;;;1.30;96.60;;;;;;6170328;23;20295;-81
2022/04/03 19:24:30;;;;;;;14.18;7.60;;;1.20;96.60;;;;;;6191188;23;20168;-81
2022/04/03 19:26:57;;;;;;;12.60;7.70;;;1.20;96.90;;;;;;6193421;23;20060;-79
2022/04/03 19:29:35;;;;;;;12.00;7.82;;;1.10;97.00;;;;;;6171914;23;20013;-80
2022/04/03 19:32:04;;;;;;;;;;;1.10;97.00;;;;;;6193457;23;20009;-80
2022/04/03 19:34:31;;;;;;;10.90;6.75;;;0.90;97.10;;;;;;6172607;23;19900;-80
2022/04/03 19:36:57;;;;;;;11.98;6.88;;;0.90;97.30;;;;;;6196817;23;20002;-80
2022/04/03 19:39:24;;;;;;;11.60;7.22;;;0.90;97.30;;;;;;6196959;23;20025;-81
2022/04/03 19:41:51;;;;;;;12.55;7.90;;;0.90;97.60;;;;;;6194921;23;20005;-78
2022/04/03 19:44:17;;;;;;;10.75;6.85;;;0.80;97.80;;;;;;6197450;23;20060;-81
2022/04/03 19:46:43;;;;;;;13.48;7.55;;;0.80;98.00;;;;;;6193482;23;20016;-81
2022/04/03 19:49:09;;;;;;;15.07;8.23;;;0.80;98.00;;;;;;6195014;23;20181;-80
2022/04/03 19:51:35;;;;;;;11.02;6.72;;;0.70;98.10;;;;;;6194515;23;20048;-80
2022/04/03 19:54:01;;;;;;;10.52;6.43;;;0.60;98.30;;;;;;6172919;23;20053;-80
2022/04/03 19:56:27;;;;;;;10.90;6.55;;;0.60;98.40;;;;;;6171189;23;20010;-78
2022/04/03 19:58:53;;;;;;;12.25;7.25;;;0.50;98.50;;;;;;6147159;23;20020;-79
2022/04/03 20:01:20;;;;;;;10.70;6.85;;;0.50;98.90;;;;;;6170903;23;20016;-80
2022/04/03 20:03:47;;;;;;;13.00;7.18;;;0.50;99.30;;;;;;6140492;23;20291;-79
2022/04/03 20:06:35;;;;;;;15.10;7.05;;;0.40;99.50;;;;;;6116408;23;19994;-79
2022/04/03 20:09:01;;;;;;;11.50;7.38;;;0.40;99.90;;;;;;6098925;23;20049;-79
2022/04/03 20:11:27;;;;;;;12.93;7.47;;;0.40;99.90;;;;;;6143389;23;20010;-79
2022/04/03 20:13:55;;;;;;;11.30;7.35;;;0.30;99.90;;;;;;6142400;23;19990;-79
2022/04/03 20:16:21;;;;;;;;;;;0.20;99.90;;;;;;6142131;23;20097;-81
2022/04/03 20:18:48;;;;;;;11.13;7.13;;;0.20;99.90;;;;;;6141410;23;20218;-79
2022/04/03 20:21:14;;;;;;;11.88;7.72;;;0.20;99.90;;;;;;6164684;23;20010;-79
2022/04/03 20:23:40;;;;;;;11.75;7.88;;;0.20;99.90;;;;;;6141271;23;20173;-80
2022/04/03 20:26:09;;;;;;;13.27;8.18;;;0.10;99.90;;;;;;6142175;23;19998;-80
2022/04/03 20:28:35;;;;;;;;;;;0.10;99.90;;;;;;6138958;23;20010;-80
2022/04/03 20:31:11;;;;;;;13.38;7.57;;;0.10;99.90;;;;;;6139508;23;20258;-80
2022/04/03 20:33:42;;;;;;;13.17;8.03;;;0.00;99.90;;;;;;6143315;23;20014;-82
2022/04/03 20:36:09;;;;;;;12.55;7.70;;;0.00;99.90;;;;;;6174389;23;20033;-80
2022/04/03 20:38:35;;;;;;;15.50;8.82;;;-0.10;99.90;;;;;;6173624;23;20004;-82
2022/04/03 20:41:02;;;;;;;12.57;7.45;;;0.00;99.90;;;;;;6173512;23;20006;-81
2022/04/03 20:43:31;;;;;;;12.77;7.20;;;0.00;99.90;;;;;;6173281;23;19993;-80
2022/04/03 20:45:57;;;;;;;11.50;7.25;;;-0.10;99.90;;;;;;6170253;23;20028;-77
2022/04/03 20:48:25;;;;;;;10.23;6.72;;;-0.10;99.90;;;;;;6170865;23;20069;-79
2022/04/03 20:50:52;;;;;;;13.35;7.72;;;-0.10;99.90;;;;;;6176500;23;20081;-79
2022/04/03 20:53:19;;;;;;;12.25;7.70;;;-0.10;99.90;;;;;;6174833;23;20006;-78
2022/04/03 20:55:47;;;;;;;13.60;8.07;;;-0.20;99.90;;;;;;6175846;23;20040;-78
2022/04/03 20:58:14;;;;;;;13.07;7.75;;;-0.20;99.90;;;;;;6173553;23;20010;-79
2022/04/03 21:00:40;;;;;;;14.38;8.52;;;-0.30;99.90;;;;;;6174967;23;20013;-81
2022/04/03 21:03:06;;;;;;;14.68;8.60;;;-0.30;99.90;;;;;;6194062;23;20016;-80
2022/04/03 21:06:13;;;;;;;13.80;8.70;;;-0.30;99.90;;;;;;6174226;23;20053;-79
2022/04/03 21:08:39;;;;;;;13.68;8.00;;;-0.30;99.90;;;;;;6148704;23;20009;-80
2022/04/03 21:11:31;;;;;;;13.35;8.05;;;-0.30;99.90;;;;;;6174994;23;20030;-80
2022/04/03 21:13:57;;;;;;;12.98;7.93;;;-0.40;99.90;;;;;;6174512;23;20054;-81
2022/04/03 21:16:29;;;;;;;12.15;7.47;;;-0.30;99.90;;;;;;6172768;23;20044;-78
2022/04/03 21:19:01;;;;;;;14.40;8.73;;;-0.40;99.90;;;;;;6172021;23;20104;-81
2022/04/03 21:21:30;;;;;;;13.13;8.15;;;-0.40;99.90;;;;;;6170195;23;20016;-80
2022/04/03 21:27:18;;;;;;;13.52;8.45;;;-0.20;99.90;;;;;;6170576;23;20065;-81
2022/04/03 21:30:20;;;;;;;15.05;8.73;;;-0.30;99.90;;;;;;6170945;23;20303;-79
2022/04/03 21:32:55;;;;;;;13.13;9.00;;;-0.40;99.90;;;;;;6176421;23;20013;-80
2022/04/03 21:35:26;;;;;;;14.25;8.93;;;-0.40;99.90;;;;;;6154302;23;19997;-79